Time;durP1;ratioP1;P1;durP2;ratioP2;P2;SDS_P1;SDS_P2;PMS_P1;PMS_P2;Temp;Humidity;BMP_temperature;BMP_pressure;BME280_temperature;BME280_humidity;BME280_pressure;Samples;Min_cycle;Max_cycle;Signal;HPM_P1;HPM_P2
2024/04/18 00:01:32;;;;;;;3.15;1.45;;;11.40;60.50;;;;;;6831220;26;20005;-66
2024/04/18 00:04:32;;;;;;;5.63;2.00;;;11.50;59.90;;;;;;6793670;26;20091;-67
2024/04/18 00:07:35;;;;;;;4.43;1.58;;;11.50;59.90;;;;;;6770864;26;20005;-67
2024/04/18 00:10:53;;;;;;;2.03;1.33;;;11.60;59.80;;;;;;6818251;26;20013;-67
2024/04/18 00:14:23;;;;;;;1.25;1.15;;;11.60;59.70;;;;;;6692112;26;20098;-68
2024/04/18 00:17:44;;;;;;;9.75;1.40;;;11.70;59.60;;;;;;6666695;26;20435;-68
2024/04/18 00:20:56;;;;;;;1.83;1.33;;;11.70;59.60;;;;;;6656835;26;20067;-67
2024/04/18 00:23:57;;;;;;;4.00;1.60;;;11.70;59.50;;;;;;6682427;26;20780;-67
2024/04/18 00:27:16;;;;;;;1.58;1.05;;;11.70;59.50;;;;;;6694502;26;20011;-67
2024/04/18 00:30:17;;;;;;;3.13;1.30;;;11.70;59.60;;;;;;6689656;26;20517;-68
2024/04/18 00:33:25;;;;;;;5.72;1.35;;;11.70;59.60;;;;;;6707006;26;21196;-68
2024/04/18 00:36:25;;;;;;;3.25;2.08;;;11.70;59.60;;;;;;6694854;26;20027;-67
2024/04/18 00:39:26;;;;;;;6.50;1.98;;;11.70;59.60;;;;;;6675451;26;20038;-66
2024/04/18 00:42:33;;;;;;;2.53;1.55;;;11.70;59.60;;;;;;6681878;26;20011;-68
2024/04/18 00:45:38;;;;;;;2.83;1.50;;;11.70;59.60;;;;;;6680882;26;20018;-67
2024/04/18 00:48:55;;;;;;;2.65;1.73;;;11.70;59.50;;;;;;6663605;26;20066;-66
2024/04/18 00:51:56;;;;;;;3.63;1.50;;;11.70;59.40;;;;;;6806791;26;20012;-68
2024/04/18 00:55:03;;;;;;;2.65;1.52;;;11.70;59.50;;;;;;6825497;26;20014;-68
2024/04/18 00:58:12;;;;;;;4.18;2.28;;;11.60;59.40;;;;;;6820278;26;20367;-68
2024/04/18 01:01:17;;;;;;;6.05;2.75;;;11.60;59.40;;;;;;6790036;26;19994;-67
2024/04/18 01:04:31;;;;;;;3.45;2.22;;;11.60;59.60;;;;;;6796338;26;20106;-68
2024/04/18 01:07:53;;;;;;;7.53;2.65;;;11.60;59.60;;;;;;6820017;26;19997;-68
2024/04/18 01:10:56;;;;;;;4.40;2.83;;;11.70;59.60;;;;;;6811984;26;20008;-67
2024/04/18 01:13:57;;;;;;;4.85;3.75;;;11.80;59.60;;;;;;6791814;26;19993;-69
2024/04/18 01:16:59;;;;;;;7.22;4.90;;;11.70;59.50;;;;;;6816188;26;20184;-66
2024/04/18 01:20:04;;;;;;;14.73;7.35;;;11.80;59.50;;;;;;6782491;26;20031;-68
2024/04/18 01:23:05;;;;;;;8.20;5.63;;;11.80;59.50;;;;;;6816791;26;20004;-67
2024/04/18 01:26:18;;;;;;;11.43;6.10;;;11.80;59.50;;;;;;6801634;26;20433;-67
2024/04/18 01:29:19;;;;;;;16.50;7.53;;;11.80;59.50;;;;;;6773141;26;20021;-67
2024/04/18 01:32:39;;;;;;;6.90;4.57;;;11.90;59.50;;;;;;6802345;26;20542;-67
2024/04/18 01:35:41;;;;;;;7.57;4.65;;;11.80;59.40;;;;;;6770523;26;20009;-67
2024/04/18 01:38:55;;;;;;;9.02;4.05;;;11.80;59.50;;;;;;6819387;26;19999;-66
2024/04/18 01:42:07;;;;;;;4.45;2.63;;;11.80;59.50;;;;;;6736003;26;20597;-66
2024/04/18 01:45:17;;;;;;;3.30;2.33;;;11.70;59.50;;;;;;6815394;26;20004;-67
2024/04/18 01:48:18;;;;;;;7.85;1.63;;;11.70;59.50;;;;;;6797275;26;19997;-66
2024/04/18 01:51:38;;;;;;;0.57;0.47;;;11.70;59.50;;;;;;6820494;26;20005;-68
2024/04/18 01:54:59;;;;;;;0.55;0.40;;;11.60;59.30;;;;;;6805928;26;20092;-67
2024/04/18 01:58:03;;;;;;;0.80;0.63;;;11.50;59.10;;;;;;6789972;26;19997;-67
2024/04/18 02:01:06;;;;;;;1.27;0.70;;;11.50;59.10;;;;;;6771229;26;20419;-67
2024/04/18 02:04:09;;;;;;;3.20;0.45;;;11.40;58.90;;;;;;6782269;26;19998;-66
2024/04/18 02:07:09;;;;;;;0.45;0.45;;;11.20;58.80;;;;;;6828885;26;19998;-68
2024/04/18 02:10:30;;;;;;;0.50;0.47;;;11.10;58.90;;;;;;6827074;26;19998;-66
2024/04/18 02:13:36;;;;;;;0.88;0.45;;;11.00;59.00;;;;;;6798286;26;20112;-66
2024/04/18 02:16:37;;;;;;;0.22;0.22;;;11.00;58.90;;;;;;6833770;26;20009;-67
2024/04/18 02:19:56;;;;;;;0.57;0.47;;;10.80;58.60;;;;;;6793239;26;20125;-67
2024/04/18 02:23:17;;;;;;;0.20;0.20;;;10.60;58.70;;;;;;6801125;26;20076;-66
2024/04/18 02:26:24;;;;;;;;;;;10.40;59.20;;;;;;6769568;26;20441;-67
2024/04/18 02:29:24;;;;;;;0.15;0.15;;;10.20;59.30;;;;;;6799640;26;19924;-69
2024/04/18 02:32:26;;;;;;;0.32;0.30;;;10.10;59.30;;;;;;6783268;26;19998;-69
2024/04/18 02:35:26;;;;;;;0.28;0.28;;;10.00;59.70;;;;;;6762931;26;20013;-67
2024/04/18 02:38:35;;;;;;;0.45;0.38;;;9.90;60.20;;;;;;6809272;26;20069;-68
2024/04/18 02:41:36;;;;;;;0.40;0.40;;;9.90;60.80;;;;;;6797797;26;20140;-68
2024/04/18 02:44:59;;;;;;;0.20;0.20;;;9.80;61.30;;;;;;6805874;26;20814;-67
2024/04/18 02:48:01;;;;;;;0.20;0.20;;;9.80;61.70;;;;;;6791803;26;20035;-67
2024/04/18 02:51:17;;;;;;;0.10;0.10;;;9.60;62.00;;;;;;6821828;26;20592;-66
2024/04/18 02:54:19;;;;;;;0.17;0.17;;;9.50;62.70;;;;;;6781277;26;19990;-68
2024/04/18 02:57:21;;;;;;;0.30;0.30;;;9.30;63.30;;;;;;6804024;26;20124;-67
2024/04/18 03:00:22;;;;;;;0.20;0.20;;;9.30;63.80;;;;;;6796711;26;20088;-68
2024/04/18 03:03:41;;;;;;;0.20;0.20;;;9.10;64.10;;;;;;6734879;26;19998;-67
2024/04/18 03:06:45;;;;;;;0.20;0.20;;;9.00;64.40;;;;;;6798132;25;19998;-67
2024/04/18 03:09:46;;;;;;;0.10;0.10;;;9.00;64.90;;;;;;6826889;26;20160;-67
2024/04/18 03:12:59;;;;;;;0.10;0.10;;;8.90;65.30;;;;;;6822656;26;20001;-67
2024/04/18 03:16:19;;;;;;;0.00;0.00;;;8.90;65.20;;;;;;6797413;26;20002;-67
2024/04/18 03:19:20;;;;;;;2.97;0.25;;;8.90;64.90;;;;;;6770793;26;20431;-66
2024/04/18 03:22:27;;;;;;;0.00;0.00;;;8.90;64.70;;;;;;6783993;26;20035;-68
2024/04/18 03:25:33;;;;;;;0.08;0.08;;;8.90;64.40;;;;;;6822216;26;20024;-66
2024/04/18 03:28:37;;;;;;;0.00;0.00;;;8.90;63.90;;;;;;6794018;26;20396;-68
2024/04/18 03:31:41;;;;;;;0.00;0.00;;;9.10;63.60;;;;;;6801561;26;20012;-67
2024/04/18 03:34:43;;;;;;;0.00;0.00;;;9.10;63.40;;;;;;6777515;26;20077;-68
2024/04/18 03:37:45;;;;;;;0.10;0.10;;;9.20;63.10;;;;;;6804710;26;20365;-67
2024/04/18 03:41:02;;;;;;;0.10;0.10;;;9.30;62.50;;;;;;6777069;26;20042;-67
2024/04/18 03:44:04;;;;;;;0.08;0.08;;;9.30;62.10;;;;;;6756994;26;20632;-67
2024/04/18 03:47:05;;;;;;;0.10;0.10;;;9.30;61.90;;;;;;6780485;26;19997;-67
2024/04/18 03:50:09;;;;;;;0.10;0.10;;;9.40;62.00;;;;;;6829653;26;20381;-67
2024/04/18 03:53:12;;;;;;;0.08;0.08;;;9.30;61.90;;;;;;6829446;26;20127;-67
2024/04/18 03:56:13;;;;;;;0.10;0.10;;;9.20;62.10;;;;;;6810292;26;20001;-67
2024/04/18 03:59:14;;;;;;;0.00;0.00;;;9.20;62.20;;;;;;6801968;26;19997;-67
2024/04/18 04:02:18;;;;;;;0.05;0.05;;;9.10;62.20;;;;;;6766781;26;20016;-65
2024/04/18 04:05:20;;;;;;;2.20;0.20;;;9.10;62.30;;;;;;6832247;26;19993;-67
2024/04/18 04:08:21;;;;;;;0.00;0.00;;;9.10;62.40;;;;;;6820713;26;20014;-67
2024/04/18 04:11:22;;;;;;;0.05;0.05;;;9.00;62.40;;;;;;6817437;26;19998;-67
2024/04/18 04:14:22;;;;;;;0.17;0.17;;;9.00;62.60;;;;;;6828218;26;20077;-67
2024/04/18 04:17:26;;;;;;;0.10;0.10;;;9.00;62.50;;;;;;6769430;26;19994;-68
2024/04/18 04:20:39;;;;;;;0.00;0.00;;;9.00;62.70;;;;;;6775060;26;20385;-66
2024/04/18 04:23:41;;;;;;;0.10;0.10;;;8.90;62.80;;;;;;6826092;26;20030;-67
2024/04/18 04:26:42;;;;;;;0.10;0.10;;;9.00;63.00;;;;;;6767573;26;19997;-65
2024/04/18 04:29:43;;;;;;;0.10;0.10;;;8.90;63.00;;;;;;6782213;26;20154;-68
2024/04/18 04:32:44;;;;;;;0.20;0.20;;;8.90;63.10;;;;;;6754368;26;20470;-67
2024/04/18 04:36:04;;;;;;;0.10;0.10;;;8.90;63.20;;;;;;6793093;26;20005;-68
2024/04/18 04:39:06;;;;;;;0.10;0.10;;;9.00;63.40;;;;;;6831091;26;20420;-68
2024/04/18 04:42:14;;;;;;;0.30;0.25;;;8.90;63.40;;;;;;6793278;26;20317;-68
2024/04/18 04:45:15;;;;;;;0.20;0.20;;;8.90;63.50;;;;;;6771536;26;20001;-67
2024/04/18 04:48:16;;;;;;;0.52;0.20;;;8.90;63.60;;;;;;6828436;25;20182;-67
2024/04/18 04:51:44;;;;;;;0.10;0.10;;;8.90;63.70;;;;;;6807398;26;20009;-68
2024/04/18 04:54:46;;;;;;;0.17;0.17;;;8.90;64.10;;;;;;6823829;26;20065;-68
2024/04/18 04:57:47;;;;;;;0.10;0.10;;;8.80;64.10;;;;;;6767653;26;20042;-67
2024/04/18 05:00:55;;;;;;;1.55;0.20;;;8.80;64.20;;;;;;6824778;26;19997;-69
2024/04/18 05:04:14;;;;;;;0.00;0.00;;;8.80;64.20;;;;;;6795202;26;20013;-67
2024/04/18 05:07:15;;;;;;;0.00;0.00;;;8.80;64.20;;;;;;6788990;26;20037;-66
2024/04/18 05:10:16;;;;;;;0.10;0.10;;;8.70;64.20;;;;;;6823096;26;20034;-67
2024/04/18 05:13:17;;;;;;;0.10;0.10;;;8.70;64.30;;;;;;6790246;26;20399;-66
2024/04/18 05:16:18;;;;;;;0.10;0.10;;;8.70;64.50;;;;;;6814639;26;20004;-67
2024/04/18 05:19:39;;;;;;;1.45;0.32;;;8.70;64.50;;;;;;6769753;26;20275;-67
2024/04/18 05:22:40;;;;;;;0.00;0.00;;;8.70;64.60;;;;;;6788975;26;20016;-68
2024/04/18 05:25:42;;;;;;;0.20;0.20;;;8.90;64.80;;;;;;6798799;26;20105;-67
2024/04/18 05:32:13;;;;;;;1.17;0.45;;;8.80;64.60;;;;;;6834919;26;20009;-67
2024/04/18 05:35:34;;;;;;;0.10;0.10;;;8.80;64.60;;;;;;6824791;26;20522;-67
2024/04/18 05:38:36;;;;;;;0.15;0.15;;;8.90;64.60;;;;;;6783281;26;19994;-68
2024/04/18 05:41:37;;;;;;;0.30;0.30;;;8.90;64.40;;;;;;6797226;26;20057;-67
2024/04/18 05:44:58;;;;;;;1.88;0.63;;;9.00;64.20;;;;;;6808330;26;20024;-68
2024/04/18 05:47:58;;;;;;;1.30;0.52;;;9.00;63.80;;;;;;6819951;26;20068;-68
2024/04/18 05:51:00;;;;;;;0.00;0.00;;;9.00;63.60;;;;;;6777484;26;19998;-69
2024/04/18 05:54:01;;;;;;;0.30;0.30;;;9.10;63.60;;;;;;6813272;25;20408;-66
2024/04/18 05:57:06;;;;;;;0.25;0.20;;;9.10;63.50;;;;;;6792989;26;19999;-67
2024/04/18 06:00:25;;;;;;;0.45;0.45;;;9.20;63.20;;;;;;6792314;25;20073;-67
2024/04/18 06:03:28;;;;;;;0.28;0.28;;;9.20;63.10;;;;;;6818277;25;20018;-67
2024/04/18 06:06:33;;;;;;;0.20;0.20;;;9.30;62.90;;;;;;6785270;26;19993;-67
2024/04/18 06:09:52;;;;;;;0.30;0.30;;;9.40;62.80;;;;;;6760727;25;20005;-68
2024/04/18 06:12:52;;;;;;;0.38;0.28;;;9.50;62.40;;;;;;6789041;25;19997;-67
2024/04/18 06:15:53;;;;;;;0.50;0.50;;;9.60;62.00;;;;;;6831319;25;20078;-68
2024/04/18 06:18:55;;;;;;;0.73;0.55;;;9.60;61.50;;;;;;6800797;26;20397;-68
2024/04/18 06:21:55;;;;;;;0.30;0.30;;;9.60;61.10;;;;;;6799343;26;20313;-66
2024/04/18 06:24:56;;;;;;;0.30;0.30;;;9.60;61.10;;;;;;6788209;26;19998;-67
2024/04/18 06:27:58;;;;;;;0.50;0.50;;;9.60;61.00;;;;;;6823436;26;20004;-65
2024/04/18 06:31:00;;;;;;;0.30;0.30;;;9.60;61.10;;;;;;6835008;26;20001;-66
2024/04/18 06:34:04;;;;;;;1.92;0.90;;;9.70;61.30;;;;;;6818200;26;20293;-68
2024/04/18 06:37:07;;;;;;;1.50;0.28;;;9.70;61.50;;;;;;6784498;26;20951;-67
2024/04/18 06:40:08;;;;;;;0.32;0.32;;;9.80;61.40;;;;;;6838258;26;20680;-67
2024/04/18 06:43:09;;;;;;;0.65;0.40;;;9.80;61.30;;;;;;6834302;26;19994;-68
2024/04/18 06:46:09;;;;;;;1.42;0.45;;;9.80;61.40;;;;;;6793279;26;20013;-69
2024/04/18 06:49:11;;;;;;;0.20;0.20;;;9.80;61.40;;;;;;6827793;25;20868;-67
2024/04/18 06:52:12;;;;;;;1.65;0.20;;;9.80;61.50;;;;;;6792524;25;20171;-66
2024/04/18 06:55:13;;;;;;;0.22;0.20;;;9.80;61.40;;;;;;6811047;26;20014;-67
2024/04/18 06:58:16;;;;;;;0.65;0.50;;;9.70;61.40;;;;;;6831368;26;19997;-67
2024/04/18 07:01:17;;;;;;;0.43;0.43;;;9.70;61.40;;;;;;6830886;26;20710;-67
2024/04/18 07:04:30;;;;;;;1.30;0.63;;;9.70;61.60;;;;;;6826435;26;20012;-68
2024/04/18 07:07:43;;;;;;;0.40;0.40;;;9.70;61.70;;;;;;6809358;26;20020;-67
2024/04/18 07:11:04;;;;;;;3.13;0.73;;;9.60;61.80;;;;;;6819373;26;20373;-68
2024/04/18 07:14:06;;;;;;;0.68;0.60;;;9.60;61.80;;;;;;6832835;26;20405;-68
2024/04/18 07:17:07;;;;;;;1.52;0.85;;;9.60;61.80;;;;;;6834457;26;20012;-67
2024/04/18 07:20:09;;;;;;;1.67;0.70;;;9.70;61.70;;;;;;6799360;26;20615;-66
2024/04/18 07:23:10;;;;;;;0.40;0.40;;;9.80;61.40;;;;;;6823612;26;20871;-67
2024/04/18 07:26:11;;;;;;;0.88;0.50;;;9.90;61.00;;;;;;6797749;26;20185;-67
2024/04/18 07:29:12;;;;;;;0.30;0.30;;;10.00;60.70;;;;;;6822759;26;20422;-68
2024/04/18 07:32:14;;;;;;;1.85;0.60;;;10.00;60.30;;;;;;6827003;25;20015;-68
2024/04/18 07:35:15;;;;;;;7.82;2.80;;;10.10;60.40;;;;;;6830089;25;20015;-67
2024/04/18 07:38:19;;;;;;;1.15;0.63;;;10.20;59.90;;;;;;6824406;25;20025;-67
2024/04/18 07:41:20;;;;;;;1.92;0.63;;;10.20;59.60;;;;;;6818343;25;19993;-67
2024/04/18 07:44:23;;;;;;;0.75;0.70;;;10.30;59.50;;;;;;6816081;25;20013;-67
2024/04/18 07:47:24;;;;;;;1.00;0.90;;;10.40;59.20;;;;;;6829204;25;19989;-69
2024/04/18 07:50:26;;;;;;;0.88;0.88;;;10.50;59.00;;;;;;6766876;25;20011;-72
2024/04/18 07:53:27;;;;;;;1.75;0.75;;;10.60;58.90;;;;;;6822078;25;20390;-69
2024/04/18 07:56:27;;;;;;;0.85;0.77;;;10.60;58.70;;;;;;6781611;26;19995;-68
2024/04/18 07:59:32;;;;;;;0.60;0.60;;;10.70;58.70;;;;;;6800441;26;20037;-67
2024/04/18 08:02:33;;;;;;;0.40;0.40;;;10.80;58.60;;;;;;6817707;26;20078;-68
2024/04/18 08:05:34;;;;;;;0.55;0.55;;;11.00;58.50;;;;;;6828929;26;20330;-67
2024/04/18 08:08:34;;;;;;;7.68;0.88;;;11.20;58.40;;;;;;6823278;25;20025;-67
2024/04/18 08:11:38;;;;;;;0.90;0.80;;;11.10;58.10;;;;;;6833438;26;19993;-68
2024/04/18 08:14:40;;;;;;;1.05;0.55;;;11.20;58.10;;;;;;6790853;26;20014;-68
2024/04/18 08:17:41;;;;;;;2.35;1.05;;;11.20;57.80;;;;;;6826055;26;20433;-68
2024/04/18 08:20:46;;;;;;;1.88;0.95;;;11.30;57.60;;;;;;6827255;26;20001;-68
2024/04/18 08:23:51;;;;;;;0.80;0.70;;;11.30;57.30;;;;;;6814695;26;19998;-66
2024/04/18 08:26:53;;;;;;;0.70;0.70;;;11.40;57.10;;;;;;6826826;26;19997;-68
2024/04/18 08:29:56;;;;;;;2.95;1.25;;;11.50;57.50;;;;;;6823414;26;20338;-70
2024/04/18 08:32:57;;;;;;;0.73;0.70;;;11.50;56.60;;;;;;6823537;26;20013;-68
2024/04/18 08:35:58;;;;;;;1.58;0.60;;;11.60;56.50;;;;;;6824540;26;21284;-67
2024/04/18 08:38:58;;;;;;;0.40;0.40;;;11.60;56.50;;;;;;6827311;26;20008;-68
2024/04/18 08:42:00;;;;;;;1.58;0.80;;;11.70;56.50;;;;;;6820604;25;20421;-68
2024/04/18 08:45:02;;;;;;;1.65;1.10;;;11.80;56.50;;;;;;6809932;25;19998;-65
2024/04/18 08:48:05;;;;;;;1.58;1.10;;;11.90;56.20;;;;;;6796858;26;20009;-67
2024/04/18 08:51:07;;;;;;;2.13;1.30;;;11.90;55.80;;;;;;6802420;26;19993;-67
2024/04/18 08:54:08;;;;;;;0.95;0.82;;;12.10;55.60;;;;;;6813986;26;19997;-67
2024/04/18 08:57:11;;;;;;;1.05;0.95;;;11.90;55.40;;;;;;6826900;26;20053;-66
2024/04/18 09:00:13;;;;;;;1.95;0.75;;;11.90;55.30;;;;;;6819244;26;19997;-67
2024/04/18 09:03:14;;;;;;;0.75;0.73;;;11.80;55.10;;;;;;6825632;26;20478;-67
2024/04/18 09:06:17;;;;;;;1.30;0.95;;;11.80;55.00;;;;;;6797627;26;20009;-68
2024/04/18 09:09:22;;;;;;;1.00;0.80;;;11.80;55.00;;;;;;6775540;26;20013;-69
2024/04/18 09:12:23;;;;;;;0.73;0.68;;;11.80;55.00;;;;;;6771354;26;20030;-69
2024/04/18 09:15:26;;;;;;;4.15;0.82;;;11.80;55.10;;;;;;6789705;26;20463;-66
2024/04/18 09:18:33;;;;;;;1.27;1.00;;;12.00;55.20;;;;;;6768753;26;20017;-68
2024/04/18 09:21:34;;;;;;;0.40;0.40;;;12.10;54.90;;;;;;6788572;26;20154;-67
2024/04/18 09:24:38;;;;;;;0.95;0.68;;;12.10;54.50;;;;;;6798364;26;20012;-68
2024/04/18 09:27:41;;;;;;;0.70;0.60;;;12.20;54.10;;;;;;6832770;26;20008;-68
2024/04/18 09:30:42;;;;;;;8.50;1.33;;;12.20;53.90;;;;;;6794734;26;20017;-67
2024/04/18 09:33:43;;;;;;;1.65;1.00;;;12.20;53.60;;;;;;6805680;26;19998;-67
2024/04/18 09:36:46;;;;;;;2.55;0.90;;;12.30;53.80;;;;;;6790798;26;19994;-68
2024/04/18 09:39:51;;;;;;;1.13;0.85;;;12.40;53.60;;;;;;6806778;26;20073;-69
2024/04/18 09:42:58;;;;;;;1.38;1.15;;;12.40;53.10;;;;;;6800549;26;20817;-68
2024/04/18 09:46:07;;;;;;;1.95;1.17;;;12.30;52.70;;;;;;6796954;26;20010;-68
2024/04/18 09:49:11;;;;;;;5.85;2.40;;;12.60;52.80;;;;;;6796884;26;20492;-68
2024/04/18 09:52:13;;;;;;;5.88;1.45;;;12.70;52.50;;;;;;6765572;26;20001;-68
2024/04/18 09:55:19;;;;;;;1.08;0.95;;;12.90;52.10;;;;;;6832050;26;20060;-67
2024/04/18 09:58:23;;;;;;;1.52;1.25;;;12.90;51.40;;;;;;6802470;25;20008;-68
2024/04/18 10:01:24;;;;;;;2.03;1.00;;;13.00;51.30;;;;;;6831981;25;20014;-67
2024/04/18 10:04:26;;;;;;;4.80;1.25;;;13.00;50.90;;;;;;6801764;26;20012;-68
2024/04/18 10:07:29;;;;;;;2.13;0.90;;;13.00;50.50;;;;;;6778446;25;20002;-67
2024/04/18 10:10:31;;;;;;;1.50;1.15;;;12.90;50.50;;;;;;6799887;26;19990;-66
2024/04/18 10:13:32;;;;;;;5.00;1.13;;;13.00;50.40;;;;;;6800200;26;20006;-67
2024/04/18 10:16:48;;;;;;;2.33;1.20;;;13.10;50.50;;;;;;6806641;26;20069;-68
2024/04/18 10:19:53;;;;;;;1.25;0.90;;;13.20;50.30;;;;;;6794662;25;20006;-67
2024/04/18 10:22:56;;;;;;;0.98;0.93;;;13.40;50.00;;;;;;6837535;26;20088;-67
2024/04/18 10:25:58;;;;;;;4.00;2.28;;;13.50;49.70;;;;;;6784627;26;20140;-67
2024/04/18 10:29:01;;;;;;;2.85;1.17;;;13.50;49.60;;;;;;6819322;26;20029;-67
2024/04/18 10:32:05;;;;;;;0.80;0.80;;;13.60;49.50;;;;;;6827390;25;19997;-67
2024/04/18 10:35:06;;;;;;;0.85;0.60;;;13.70;49.30;;;;;;6817886;26;20092;-67
2024/04/18 10:38:07;;;;;;;0.93;0.75;;;13.70;48.50;;;;;;6803602;26;20275;-67
2024/04/18 10:41:12;;;;;;;0.70;0.70;;;13.60;47.80;;;;;;6774176;26;20001;-67
2024/04/18 10:44:13;;;;;;;6.13;0.70;;;13.50;47.70;;;;;;6824775;26;21482;-68
2024/04/18 10:47:19;;;;;;;2.00;0.80;;;13.40;47.20;;;;;;6762615;26;19998;-66
2024/04/18 10:50:20;;;;;;;1.38;0.98;;;13.30;47.40;;;;;;6791204;26;20006;-67
2024/04/18 10:53:22;;;;;;;5.93;0.93;;;13.30;47.60;;;;;;6811456;25;19998;-69
2024/04/18 10:56:23;;;;;;;5.00;1.17;;;13.40;47.50;;;;;;6778890;26;20019;-68
2024/04/18 10:59:23;;;;;;;2.28;1.20;;;13.40;47.60;;;;;;6818724;26;20006;-69
2024/04/18 11:02:24;;;;;;;1.13;0.70;;;13.40;48.00;;;;;;6830985;26;20646;-68
2024/04/18 11:05:26;;;;;;;1.83;0.80;;;13.60;47.90;;;;;;6791273;26;20041;-67
2024/04/18 11:08:28;;;;;;;0.90;0.90;;;13.80;47.80;;;;;;6834140;26;20646;-69
2024/04/18 11:11:32;;;;;;;1.83;0.68;;;14.10;47.50;;;;;;6805455;26;20001;-69
2024/04/18 11:14:33;;;;;;;1.33;1.00;;;14.60;46.70;;;;;;6785282;26;20074;-68
2024/04/18 11:17:37;;;;;;;2.25;0.55;;;15.20;45.70;;;;;;6826147;26;20084;-66
2024/04/18 11:20:40;;;;;;;2.08;0.57;;;15.70;44.40;;;;;;6809636;26;19993;-68
2024/04/18 11:23:42;;;;;;;1.50;0.65;;;16.10;43.60;;;;;;6826262;25;20081;-69
2024/04/18 11:26:45;;;;;;;0.75;0.75;;;16.30;42.70;;;;;;6828481;26;19989;-68
2024/04/18 11:29:51;;;;;;;2.90;1.00;;;16.20;41.90;;;;;;6809968;26;20013;-68
2024/04/18 11:32:56;;;;;;;1.23;0.63;;;15.90;41.50;;;;;;6824559;26;19993;-68
2024/04/18 11:35:57;;;;;;;0.55;0.55;;;15.40;41.80;;;;;;6833799;26;20012;-68
2024/04/18 11:39:01;;;;;;;1.80;0.40;;;15.00;42.20;;;;;;6829048;25;20036;-67
2024/04/18 11:42:02;;;;;;;0.95;0.55;;;14.60;43.00;;;;;;6822766;26;20132;-68
2024/04/18 11:45:04;;;;;;;0.55;0.55;;;14.40;43.90;;;;;;6819338;25;19997;-67
2024/04/18 11:48:05;;;;;;;1.70;0.63;;;14.20;44.20;;;;;;6826096;26;20065;-69
2024/04/18 11:51:06;;;;;;;0.75;0.55;;;14.10;44.50;;;;;;6819281;26;19997;-65
2024/04/18 11:54:08;;;;;;;4.57;0.85;;;14.20;44.70;;;;;;6798132;26;20018;-68
2024/04/18 11:57:09;;;;;;;0.80;0.80;;;14.40;44.10;;;;;;6788852;25;20013;-69
2024/04/18 12:00:10;;;;;;;1.15;0.77;;;14.70;43.50;;;;;;6818929;25;19990;-68
2024/04/18 12:03:30;;;;;;;3.25;0.70;;;15.30;43.00;;;;;;6827771;25;20009;-68
2024/04/18 12:06:31;;;;;;;1.75;0.70;;;15.90;42.10;;;;;;6792425;26;20506;-68
2024/04/18 12:09:36;;;;;;;3.95;0.63;;;16.10;41.60;;;;;;6781777;26;19993;-68
2024/04/18 12:12:38;;;;;;;1.00;0.73;;;16.00;41.20;;;;;;6836618;26;20027;-67
2024/04/18 12:15:54;;;;;;;6.82;0.98;;;15.90;41.40;;;;;;6838076;25;20501;-70
2024/04/18 12:19:04;;;;;;;2.92;0.90;;;15.80;41.30;;;;;;6815859;26;20052;-67
2024/04/18 12:22:10;;;;;;;0.95;0.75;;;15.80;41.70;;;;;;6800907;26;19993;-67
2024/04/18 12:25:11;;;;;;;1.15;0.60;;;16.10;41.60;;;;;;6763743;26;19998;-68
2024/04/18 12:28:12;;;;;;;1.00;0.70;;;16.80;40.30;;;;;;6801798;26;20649;-68
2024/04/18 12:31:15;;;;;;;0.73;0.50;;;17.30;38.40;;;;;;6832284;26;20012;-68
2024/04/18 12:34:23;;;;;;;1.42;0.80;;;17.60;37.00;;;;;;6795983;26;19993;-68
2024/04/18 12:37:46;;;;;;;4.18;0.88;;;17.90;36.30;;;;;;6807983;26;19998;-69
2024/04/18 12:40:47;;;;;;;0.90;0.75;;;18.40;35.20;;;;;;6789978;26;20008;-68
2024/04/18 12:43:48;;;;;;;0.93;0.70;;;18.80;34.10;;;;;;6796387;26;20002;-69
2024/04/18 12:47:27;;;;;;;2.72;0.70;;;19.20;33.40;;;;;;6732161;26;20833;-67
2024/04/18 12:50:29;;;;;;;1.63;0.80;;;20.10;31.80;;;;;;6745727;26;20019;-68
2024/04/18 12:53:37;;;;;;;1.15;0.60;;;20.80;30.90;;;;;;6734522;26;20457;-69
2024/04/18 12:56:40;;;;;;;2.30;1.10;;;21.30;29.60;;;;;;6707043;26;20138;-66
2024/04/18 12:59:56;;;;;;;1.30;0.90;;;21.70;28.60;;;;;;6692470;26;20082;-68
2024/04/18 13:02:57;;;;;;;0.63;0.50;;;21.90;28.10;;;;;;6743651;26;20015;-67
2024/04/18 13:06:09;;;;;;;3.05;1.50;;;21.90;27.80;;;;;;6718234;26;20087;-68
2024/04/18 13:09:22;;;;;;;2.72;0.70;;;21.60;28.30;;;;;;6718610;26;20029;-69
2024/04/18 13:12:23;;;;;;;12.95;0.70;;;22.00;28.40;;;;;;6733818;26;20086;-69
2024/04/18 13:15:32;;;;;;;1.05;0.70;;;22.00;28.10;;;;;;6732298;26;20142;-68
2024/04/18 13:18:42;;;;;;;1.15;0.57;;;21.40;28.40;;;;;;6797093;26;20447;-69
2024/04/18 13:22:03;;;;;;;1.42;0.40;;;20.60;28.80;;;;;;6797334;26;20013;-68
2024/04/18 13:25:04;;;;;;;0.38;0.38;;;20.00;29.60;;;;;;6828527;25;20142;-68
2024/04/18 13:28:07;;;;;;;0.80;0.70;;;20.70;29.10;;;;;;6817684;25;20063;-68
2024/04/18 13:31:13;;;;;;;1.30;0.50;;;21.00;28.30;;;;;;6795420;26;20005;-69
2024/04/18 13:34:20;;;;;;;1.10;0.82;;;20.30;28.60;;;;;;6828749;26;19998;-67
2024/04/18 13:37:23;;;;;;;0.60;0.60;;;19.50;29.60;;;;;;6794617;26;20017;-68
2024/04/18 13:40:44;;;;;;;1.52;0.38;;;18.80;30.40;;;;;;6815395;26;20345;-67
2024/04/18 13:43:45;;;;;;;1.73;0.63;;;18.10;30.70;;;;;;6825584;25;19997;-69
2024/04/18 13:46:46;;;;;;;1.73;0.50;;;17.50;31.50;;;;;;6791289;26;20129;-70
2024/04/18 13:50:06;;;;;;;1.00;0.55;;;17.10;31.90;;;;;;6802183;26;20009;-67
2024/04/18 13:53:07;;;;;;;0.55;0.30;;;18.20;31.20;;;;;;6756289;26;20074;-67
2024/04/18 13:56:08;;;;;;;1.35;0.50;;;20.00;29.20;;;;;;6743811;26;20007;-67
2024/04/18 13:59:10;;;;;;;0.77;0.30;;;21.30;27.30;;;;;;6746725;26;20327;-70
2024/04/18 14:02:31;;;;;;;0.68;0.60;;;21.20;26.10;;;;;;6749451;26;20038;-66
2024/04/18 14:05:48;;;;;;;2.95;0.50;;;20.20;26.20;;;;;;6753690;26;19999;-69
2024/04/18 14:08:48;;;;;;;0.38;0.38;;;19.20;27.60;;;;;;6782595;26;20552;-68
2024/04/18 14:12:09;;;;;;;1.50;0.70;;;18.40;28.50;;;;;;6757694;26;20080;-69
2024/04/18 14:18:48;;;;;;;0.40;0.40;;;18.40;28.90;;;;;;6757435;26;19994;-67
2024/04/18 14:18:58;;;;;;;1.90;0.80;;;18.60;28.90;;;;;;6782444;26;20006;-67
2024/04/18 14:22:08;;;;;;;0.40;0.40;;;18.80;28.70;;;;;;6746513;26;20026;-69
2024/04/18 14:25:09;;;;;;;0.88;0.65;;;18.80;28.40;;;;;;6724392;26;20022;-69
2024/04/18 14:28:12;;;;;;;0.50;0.40;;;18.60;28.30;;;;;;6783937;26;20306;-67
2024/04/18 14:31:14;;;;;;;1.20;0.57;;;18.10;28.50;;;;;;6752085;26;20112;-68
2024/04/18 14:34:20;;;;;;;0.63;0.40;;;17.80;28.70;;;;;;6792149;26;20305;-67
2024/04/18 14:37:22;;;;;;;1.05;0.63;;;17.30;29.90;;;;;;6749822;26;20103;-69
2024/04/18 14:40:24;;;;;;;0.57;0.30;;;16.80;31.70;;;;;;6716085;26;20012;-67
2024/04/18 14:43:26;;;;;;;0.50;0.50;;;16.30;33.10;;;;;;6725472;26;19990;-67
2024/04/18 14:46:27;;;;;;;1.27;0.47;;;16.00;34.00;;;;;;6721706;26;20075;-68
2024/04/18 14:49:34;;;;;;;4.25;0.50;;;15.80;34.90;;;;;;6726410;26;19998;-67
2024/04/18 14:52:57;;;;;;;0.55;0.50;;;15.60;35.40;;;;;;6765800;25;20012;-68
2024/04/18 14:56:04;;;;;;;0.30;0.30;;;15.50;35.80;;;;;;6823710;25;20057;-68
2024/04/18 14:59:06;;;;;;;0.43;0.40;;;15.50;35.90;;;;;;6836552;26;20361;-68
2024/04/18 15:02:07;;;;;;;0.50;0.40;;;15.40;35.70;;;;;;6836271;25;19990;-68
2024/04/18 15:05:28;;;;;;;0.47;0.40;;;15.30;35.60;;;;;;6826153;26;20089;-68
2024/04/18 15:08:36;;;;;;;0.70;0.60;;;15.20;35.50;;;;;;6805810;26;20001;-68
2024/04/18 15:11:56;;;;;;;0.45;0.35;;;15.10;35.70;;;;;;6819759;26;20006;-67
2024/04/18 15:15:11;;;;;;;1.38;0.47;;;15.20;36.30;;;;;;6829428;26;20215;-68
2024/04/18 15:18:13;;;;;;;2.38;0.50;;;15.30;35.40;;;;;;6799771;26;20021;-70
2024/04/18 15:21:15;;;;;;;0.50;0.32;;;15.50;34.40;;;;;;6833951;26;20008;-68
2024/04/18 15:24:41;;;;;;;0.25;0.25;;;15.70;33.40;;;;;;6836196;26;20367;-67
2024/04/18 15:27:42;;;;;;;0.57;0.45;;;15.80;32.70;;;;;;6833717;25;19997;-68
2024/04/18 15:30:45;;;;;;;0.47;0.40;;;15.90;32.20;;;;;;6788883;26;19997;-69
2024/04/18 15:33:55;;;;;;;0.30;0.30;;;15.90;31.90;;;;;;6794741;26;20033;-68
2024/04/18 15:37:15;;;;;;;0.50;0.50;;;15.90;31.60;;;;;;6819008;26;20005;-68
2024/04/18 15:40:33;;;;;;;0.45;0.45;;;15.90;31.60;;;;;;6816879;26;20001;-68
2024/04/18 15:43:38;;;;;;;0.40;0.30;;;16.00;31.70;;;;;;6809820;26;20008;-68
2024/04/18 15:46:39;;;;;;;3.22;0.38;;;16.20;31.60;;;;;;6802669;25;20072;-67
2024/04/18 15:49:43;;;;;;;3.72;0.63;;;16.30;31.40;;;;;;6797767;25;20298;-69
2024/04/18 15:52:44;;;;;;;0.90;0.38;;;16.50;31.00;;;;;;6820387;25;19998;-69
2024/04/18 15:56:03;;;;;;;0.88;0.40;;;16.80;30.30;;;;;;6824856;26;19997;-68
2024/04/18 15:59:04;;;;;;;0.82;0.60;;;17.30;29.70;;;;;;6790356;26;20024;-67
2024/04/18 16:02:25;;;;;;;3.35;0.70;;;17.20;29.30;;;;;;6799716;26;20008;-67
2024/04/18 16:05:46;;;;;;;6.18;1.20;;;17.30;29.50;;;;;;6824215;26;20444;-67
2024/04/18 16:09:07;;;;;;;6.82;0.70;;;18.30;29.00;;;;;;6822465;26;20086;-67
2024/04/18 16:12:14;;;;;;;0.55;0.45;;;19.30;28.70;;;;;;6823681;26;20399;-68
2024/04/18 16:15:33;;;;;;;2.40;0.68;;;20.10;28.70;;;;;;6828772;26;19993;-68